createdAt,value
2023-04-25T00:00:08.036Z,8.47
2023-04-25T00:03:17.338Z,8.41
2023-04-25T00:05:46.625Z,8.39
2023-04-25T00:08:15.843Z,8.36
2023-04-25T00:10:44.536Z,8.31
2023-04-25T00:13:13.355Z,8.26
2023-04-25T00:15:42.797Z,8.21
2023-04-25T00:18:12.249Z,8.15
2023-04-25T00:20:41.343Z,8.12
2023-04-25T00:23:10.035Z,8.10
2023-04-25T00:25:38.712Z,8.15
2023-04-25T00:28:07.433Z,8.15
2023-04-25T00:30:36.088Z,8.13
2023-04-25T00:33:04.799Z,8.09
2023-04-25T00:35:33.949Z,8.01
2023-04-25T00:38:03.551Z,7.99
2023-04-25T00:40:32.235Z,7.93
2023-04-25T00:43:01.286Z,7.85
2023-04-25T00:45:30.820Z,7.78
2023-04-25T00:47:59.681Z,7.79
2023-04-25T00:50:28.438Z,7.82
2023-04-25T00:52:57.509Z,7.84
2023-04-25T00:55:26.488Z,7.84
2023-04-25T00:57:55.359Z,7.86
2023-04-25T01:00:24.445Z,7.88
2023-04-25T01:02:53.504Z,7.86
2023-04-25T01:05:22.560Z,7.81
2023-04-25T01:07:51.552Z,7.78
2023-04-25T01:10:20.364Z,7.79
2023-04-25T01:12:49.142Z,7.81
2023-04-25T01:15:17.872Z,7.82
2023-04-25T01:17:47.645Z,7.86
2023-04-25T01:20:16.965Z,7.83
2023-04-25T01:22:46.210Z,7.82
2023-04-25T01:25:15.400Z,7.84
2023-04-25T01:27:44.732Z,7.77
2023-04-25T01:30:14.106Z,7.72
2023-04-25T01:32:43.320Z,7.65
2023-04-25T01:35:13.299Z,7.60
2023-04-25T01:37:43.895Z,7.57
2023-04-25T01:40:13.557Z,7.56
2023-04-25T01:42:44.042Z,7.61
2023-04-25T01:45:12.885Z,7.63
2023-04-25T01:47:43.881Z,7.65
2023-04-25T01:50:12.739Z,7.66
2023-04-25T01:52:41.482Z,7.62
2023-04-25T01:55:10.730Z,7.57
2023-04-25T01:57:39.543Z,7.54
2023-04-25T02:00:10.170Z,7.49
2023-04-25T02:02:39.072Z,7.47
2023-04-25T02:05:08.262Z,7.46
2023-04-25T02:07:37.001Z,7.52
2023-04-25T02:10:06.226Z,7.59
2023-04-25T02:12:36.742Z,7.58
2023-04-25T02:15:07.006Z,7.56
2023-04-25T02:17:35.707Z,7.53
2023-04-25T02:20:05.402Z,7.45
2023-04-25T02:22:35.097Z,7.41
2023-04-25T02:25:05.620Z,7.37
2023-04-25T02:27:34.719Z,7.35
2023-04-25T02:30:04.308Z,7.35
2023-04-25T02:32:35.240Z,7.34
2023-04-25T02:35:07.255Z,7.39
2023-04-25T02:37:37.342Z,7.38
2023-04-25T02:40:06.884Z,7.34
2023-04-25T02:42:36.254Z,7.26
2023-04-25T02:45:05.480Z,7.20
2023-04-25T02:47:34.301Z,7.17
2023-04-25T02:50:03.377Z,7.16
2023-04-25T02:52:32.073Z,7.15
2023-04-25T02:55:00.764Z,7.12
2023-04-25T02:57:29.478Z,7.11
2023-04-25T02:59:58.241Z,7.10
2023-04-25T03:02:27.033Z,7.09
2023-04-25T03:04:55.788Z,7.06
2023-04-25T03:07:24.458Z,7.03
2023-04-25T03:09:53.164Z,6.98
2023-04-25T03:12:21.816Z,6.96
2023-04-25T03:14:50.842Z,6.92
2023-04-25T03:17:19.503Z,6.90
2023-04-25T03:19:48.135Z,6.92
2023-04-25T03:22:16.843Z,6.93
2023-04-25T03:24:45.559Z,6.92
2023-04-25T03:27:14.492Z,6.90
2023-04-25T03:29:43.225Z,6.88
2023-04-25T03:32:12.019Z,6.87
2023-04-25T03:34:41.145Z,6.85
2023-04-25T03:37:09.849Z,6.85
2023-04-25T03:39:39.449Z,6.87
2023-04-25T03:42:08.145Z,6.89
2023-04-25T03:44:36.787Z,6.93
2023-04-25T03:47:05.552Z,6.92
2023-04-25T03:49:36.520Z,6.90
2023-04-25T03:52:05.821Z,6.90
2023-04-25T03:54:34.588Z,6.88
2023-04-25T03:57:03.369Z,6.85
2023-04-25T03:59:32.078Z,6.89
2023-04-25T04:02:00.812Z,6.98
2023-04-25T04:04:29.883Z,7.00
2023-04-25T04:06:58.931Z,7.01
2023-04-25T04:09:28.534Z,6.99
2023-04-25T04:11:57.272Z,6.97
2023-04-25T04:14:26.088Z,7.00
2023-04-25T04:16:54.913Z,7.05
2023-04-25T04:19:23.604Z,7.18
2023-04-25T04:21:52.281Z,7.26
2023-04-25T04:24:20.923Z,7.28
2023-04-25T04:26:49.701Z,7.33
2023-04-25T04:29:22.205Z,7.33
2023-04-25T04:31:53.717Z,7.33
2023-04-25T04:34:22.675Z,7.29
2023-04-25T04:36:51.385Z,7.33
2023-04-25T04:39:20.059Z,7.38
2023-04-25T04:41:48.881Z,7.41
2023-04-25T04:44:17.527Z,7.45
2023-04-25T04:46:47.879Z,7.48
2023-04-25T04:49:16.898Z,7.49
2023-04-25T04:51:45.654Z,7.52
2023-04-25T04:54:14.495Z,7.63
2023-04-25T04:56:43.261Z,7.75
2023-04-25T04:59:11.927Z,7.87
2023-04-25T05:01:40.666Z,7.97
2023-04-25T05:04:09.650Z,8.01
2023-04-25T05:06:38.600Z,8.05
2023-04-25T05:09:07.321Z,8.06
2023-04-25T05:11:36.078Z,8.07
2023-04-25T05:14:04.784Z,8.04
2023-04-25T05:16:33.481Z,8.06
2023-04-25T05:19:02.226Z,8.11
2023-04-25T05:21:32.476Z,8.24
2023-04-25T05:24:02.374Z,8.33
2023-04-25T05:26:32.086Z,8.47
2023-04-25T05:29:01.391Z,8.53
2023-04-25T05:31:30.654Z,8.59
2023-04-25T05:33:59.558Z,8.63
2023-04-25T05:36:28.552Z,8.67
2023-04-25T05:38:57.273Z,8.70
2023-04-25T05:41:25.968Z,8.71
2023-04-25T05:43:57.138Z,8.82
2023-04-25T05:46:26.948Z,8.87
2023-04-25T05:48:56.228Z,8.89
2023-04-25T05:51:24.950Z,8.87
2023-04-25T05:53:53.726Z,8.87
2023-04-25T05:56:22.552Z,8.98
2023-04-25T05:58:51.264Z,9.06
2023-04-25T06:01:19.995Z,9.07
2023-04-25T06:03:48.942Z,9.18
2023-04-25T06:06:18.079Z,9.34
2023-04-25T06:08:46.809Z,9.41
2023-04-25T06:11:15.604Z,9.42
2023-04-25T06:13:44.297Z,9.44
2023-04-25T06:16:13.194Z,9.43
2023-04-25T06:18:41.967Z,9.36
2023-04-25T06:21:10.708Z,9.33
2023-04-25T06:23:39.440Z,9.34
2023-04-25T06:26:08.276Z,9.44
2023-04-25T06:28:36.945Z,9.48
2023-04-25T06:31:05.795Z,9.52
2023-04-25T06:33:34.561Z,9.58
2023-04-25T06:36:03.417Z,9.61
2023-04-25T06:38:32.115Z,9.70
2023-04-25T06:41:00.813Z,9.67
2023-04-25T06:43:29.840Z,9.68
2023-04-25T06:45:58.973Z,9.76
2023-04-25T06:48:28.546Z,9.77
2023-04-25T06:50:57.600Z,9.85
2023-04-25T06:53:26.350Z,9.92
2023-04-25T06:55:55.336Z,9.90
2023-04-25T06:58:24.006Z,10.03
2023-04-25T07:00:53.041Z,10.17
2023-04-25T07:03:22.632Z,10.37
2023-04-25T07:05:51.723Z,10.36
2023-04-25T07:08:21.593Z,10.37
2023-04-25T07:10:50.570Z,10.54
2023-04-25T07:13:19.250Z,10.63
2023-04-25T07:15:49.206Z,10.54
2023-04-25T07:18:17.957Z,10.70
2023-04-25T07:20:46.648Z,10.85
2023-04-25T07:23:15.462Z,10.83
2023-04-25T07:25:44.154Z,10.80
2023-04-25T07:28:12.871Z,10.89
2023-04-25T07:30:41.552Z,10.94
2023-04-25T07:33:10.444Z,11.02
2023-04-25T07:35:39.153Z,11.14
2023-04-25T07:38:07.965Z,11.08
2023-04-25T07:40:36.596Z,11.01
2023-04-25T07:43:05.303Z,11.09
2023-04-25T07:45:34.264Z,11.12
2023-04-25T07:48:04.194Z,11.23
2023-04-25T07:50:33.067Z,11.21
2023-04-25T07:53:01.727Z,11.30
2023-04-25T07:55:30.781Z,11.34
2023-04-25T07:57:59.594Z,11.36
2023-04-25T08:00:29.290Z,11.50
2023-04-25T08:02:58.061Z,11.60
2023-04-25T08:05:27.001Z,11.58
2023-04-25T08:07:57.722Z,11.65
2023-04-25T08:10:26.575Z,11.60
2023-04-25T08:12:55.255Z,11.54
2023-04-25T08:15:23.902Z,11.63
2023-04-25T08:17:52.789Z,11.82
2023-04-25T08:20:21.848Z,11.87
2023-04-25T08:22:50.866Z,11.71
2023-04-25T08:25:19.685Z,11.63
2023-04-25T08:27:48.421Z,11.75
2023-04-25T08:30:17.196Z,11.80
2023-04-25T08:32:45.906Z,11.61
2023-04-25T08:35:14.605Z,11.55
2023-04-25T08:37:43.325Z,11.55
2023-04-25T08:40:15.272Z,11.57
2023-04-25T08:42:44.066Z,11.75
2023-04-25T08:45:12.905Z,11.96
2023-04-25T08:47:43.755Z,12.13
2023-04-25T08:50:12.650Z,12.27
2023-04-25T08:52:46.543Z,12.37
2023-04-25T08:55:16.735Z,12.33
2023-04-25T08:57:46.102Z,12.58
2023-04-25T09:00:15.745Z,12.78
2023-04-25T09:02:45.075Z,12.88
2023-04-25T09:05:15.498Z,12.95
2023-04-25T09:07:44.196Z,12.94
2023-04-25T09:10:12.871Z,12.96
2023-04-25T09:12:41.925Z,12.93
2023-04-25T09:15:12.965Z,13.05
2023-04-25T09:17:45.392Z,13.22
2023-04-25T09:20:16.137Z,13.23
2023-04-25T09:22:47.123Z,13.28
2023-04-25T09:25:15.866Z,13.42
2023-04-25T09:27:55.395Z,13.31
2023-04-25T09:30:35.615Z,13.46
2023-04-25T09:33:10.362Z,13.28
2023-04-25T09:35:44.068Z,13.17
2023-04-25T09:38:14.902Z,12.94
2023-04-25T09:40:48.437Z,12.74
2023-04-25T09:43:26.499Z,12.50
2023-04-25T09:45:59.991Z,12.31
2023-04-25T09:48:30.041Z,12.24
2023-04-25T09:51:14.786Z,12.35
2023-04-25T09:53:53.088Z,12.53
2023-04-25T09:56:23.385Z,12.57
2023-04-25T09:58:56.005Z,12.60
2023-04-25T10:01:27.349Z,12.43
2023-04-25T10:03:58.903Z,12.26
2023-04-25T10:06:29.447Z,12.05
2023-04-25T10:08:59.266Z,11.92
2023-04-25T10:11:29.189Z,11.83
2023-04-25T10:13:57.944Z,11.89
2023-04-25T10:16:27.579Z,11.97
2023-04-25T10:18:56.736Z,11.99
2023-04-25T10:21:28.596Z,12.04
2023-04-25T10:23:58.234Z,12.14
2023-04-25T10:26:27.699Z,12.24
2023-04-25T10:29:02.515Z,12.42
2023-04-25T10:31:32.361Z,12.52
2023-04-25T10:34:02.376Z,12.51
2023-04-25T10:36:34.819Z,12.50
2023-04-25T10:39:10.056Z,12.44
2023-04-25T10:41:53.049Z,12.29
2023-04-25T10:44:21.833Z,12.28
2023-04-25T10:46:50.565Z,12.25
2023-04-25T10:49:34.679Z,12.19
2023-04-25T10:52:12.388Z,12.09
2023-04-25T10:54:48.853Z,12.05
2023-04-25T10:57:30.896Z,12.02
2023-04-25T11:00:12.161Z,11.85
2023-04-25T11:02:58.377Z,11.71
2023-04-25T11:05:51.016Z,11.57
2023-04-25T11:08:42.439Z,11.47
2023-04-25T11:11:11.352Z,11.38
2023-04-25T11:13:40.099Z,11.36
2023-04-25T11:16:12.978Z,11.42
2023-04-25T11:18:43.422Z,11.56
2023-04-25T11:21:13.030Z,11.62
2023-04-25T11:23:41.704Z,11.69
2023-04-25T11:26:10.395Z,11.88
2023-04-25T11:28:39.099Z,12.19
2023-04-25T11:31:07.820Z,12.47
2023-04-25T11:33:37.044Z,12.82
2023-04-25T11:36:06.507Z,13.16
2023-04-25T11:38:35.398Z,13.25
2023-04-25T11:41:04.080Z,13.02
2023-04-25T11:43:32.879Z,12.74
2023-04-25T11:46:02.179Z,12.63
2023-04-25T11:48:41.100Z,12.51
2023-04-25T11:51:10.559Z,12.31
2023-04-25T11:53:43.909Z,12.20
2023-04-25T11:56:13.234Z,12.02
2023-04-25T11:59:04.294Z,11.90
2023-04-25T12:01:35.683Z,11.69
2023-04-25T12:04:25.052Z,11.50
2023-04-25T12:06:56.170Z,11.36
2023-04-25T12:09:33.812Z,11.26
2023-04-25T12:12:04.122Z,11.18
2023-04-25T12:14:35.682Z,11.04
2023-04-25T12:17:06.299Z,10.86
2023-04-25T12:19:37.079Z,10.77
2023-04-25T12:22:23.670Z,10.77
2023-04-25T12:24:54.897Z,10.83
2023-04-25T12:27:27.136Z,11.01
2023-04-25T12:29:57.339Z,11.21
2023-04-25T12:32:27.475Z,11.45
2023-04-25T12:34:56.798Z,11.69
2023-04-25T12:37:25.582Z,11.88
2023-04-25T12:39:54.314Z,12.04
2023-04-25T12:42:23.000Z,12.12
2023-04-25T12:44:51.694Z,12.06
2023-04-25T12:47:20.985Z,11.94
2023-04-25T12:49:49.756Z,11.75
2023-04-25T12:52:18.470Z,11.52
2023-04-25T12:54:47.165Z,11.31
2023-04-25T12:57:15.936Z,11.18
2023-04-25T12:59:44.614Z,11.15
2023-04-25T13:02:13.779Z,11.16
2023-04-25T13:04:42.648Z,11.21
2023-04-25T13:07:11.364Z,11.38
2023-04-25T13:09:40.087Z,11.52
2023-04-25T13:12:08.944Z,11.60
2023-04-25T13:14:37.597Z,11.67
2023-04-25T13:17:06.458Z,11.83
2023-04-25T13:19:35.154Z,11.84
2023-04-25T13:22:05.339Z,11.89
2023-04-25T13:24:34.247Z,11.94
2023-04-25T13:27:03.028Z,11.97
2023-04-25T13:29:32.032Z,12.09
2023-04-25T13:32:00.766Z,12.30
2023-04-25T13:34:30.697Z,12.40
2023-04-25T13:36:59.588Z,12.46
2023-04-25T13:39:28.370Z,12.48
2023-04-25T13:41:57.172Z,12.39
2023-04-25T13:44:25.795Z,12.23
2023-04-25T13:46:54.607Z,12.00
2023-04-25T13:49:24.011Z,11.76
2023-04-25T13:51:52.696Z,11.58
2023-04-25T13:54:21.356Z,11.42
2023-04-25T13:56:53.414Z,11.20
2023-04-25T13:59:22.787Z,10.90
2023-04-25T14:01:52.091Z,10.63
2023-04-25T14:04:21.225Z,10.48
2023-04-25T14:06:50.359Z,10.39
2023-04-25T14:09:21.564Z,10.46
2023-04-25T14:11:50.406Z,10.59
2023-04-25T14:14:20.194Z,10.69
2023-04-25T14:16:49.682Z,10.80
2023-04-25T14:19:21.589Z,11.04
2023-04-25T14:21:51.008Z,11.27
2023-04-25T14:24:19.689Z,11.45
2023-04-25T14:26:48.483Z,11.63
2023-04-25T14:29:17.232Z,11.76
2023-04-25T14:31:46.325Z,11.74
2023-04-25T14:34:15.496Z,11.69
2023-04-25T14:36:44.263Z,11.59
2023-04-25T14:39:15.062Z,11.52
2023-04-25T14:41:43.750Z,11.31
2023-04-25T14:44:12.675Z,11.04
2023-04-25T14:46:41.379Z,10.76
2023-04-25T14:49:10.483Z,10.52
2023-04-25T14:51:39.283Z,10.27
2023-04-25T14:54:08.798Z,10.06
2023-04-25T14:56:37.493Z,9.96
2023-04-25T14:59:06.809Z,9.92
2023-04-25T15:01:35.909Z,9.93
2023-04-25T15:04:04.999Z,9.97
2023-04-25T15:06:34.818Z,10.18
2023-04-25T15:09:04.098Z,10.28
2023-04-25T15:11:32.885Z,10.37
2023-04-25T15:14:01.737Z,10.47
2023-04-25T15:16:31.884Z,10.57
2023-04-25T15:19:00.761Z,10.66
2023-04-25T15:21:29.444Z,10.73
2023-04-25T15:23:58.261Z,10.80
2023-04-25T15:26:28.285Z,10.82
2023-04-25T15:28:56.954Z,10.79
2023-04-25T15:31:26.280Z,10.77
2023-04-25T15:33:55.004Z,10.73
2023-04-25T15:36:23.661Z,10.70
2023-04-25T15:38:52.414Z,10.70
2023-04-25T15:41:21.229Z,10.71
2023-04-25T15:43:50.134Z,10.68
2023-04-25T15:46:19.083Z,10.66
2023-04-25T15:48:48.038Z,10.63
2023-04-25T15:51:17.346Z,10.58
2023-04-25T15:53:47.173Z,10.53
2023-04-25T15:56:15.932Z,10.39
2023-04-25T15:58:44.696Z,10.34
2023-04-25T16:01:13.765Z,10.39
2023-04-25T16:03:42.873Z,10.50
2023-04-25T16:06:11.711Z,10.54
2023-04-25T16:08:40.342Z,10.50
2023-04-25T16:11:09.172Z,10.48
2023-04-25T16:13:37.854Z,10.47
2023-04-25T16:16:07.064Z,10.49
2023-04-25T16:18:35.844Z,10.45
2023-04-25T16:21:04.711Z,10.43
2023-04-25T16:23:33.801Z,10.39
2023-04-25T16:26:02.705Z,10.36
2023-04-25T16:28:31.390Z,10.32
2023-04-25T16:31:00.731Z,10.33
2023-04-25T16:33:29.595Z,10.34
2023-04-25T16:35:58.722Z,10.36
2023-04-25T16:38:27.433Z,10.39
2023-04-25T16:40:56.208Z,10.37
2023-04-25T16:43:24.940Z,10.37
2023-04-25T16:45:53.601Z,10.37
2023-04-25T16:48:24.548Z,10.46
2023-04-25T16:50:53.762Z,10.53
2023-04-25T16:53:23.227Z,10.54
2023-04-25T16:55:52.242Z,10.55
2023-04-25T16:58:20.987Z,10.51
2023-04-25T17:00:49.676Z,10.52
2023-04-25T17:03:18.556Z,10.49
2023-04-25T17:05:51.028Z,10.45
2023-04-25T17:08:19.728Z,10.38
2023-04-25T17:10:49.973Z,10.31
2023-04-25T17:13:18.676Z,10.24
2023-04-25T17:15:47.333Z,10.11
2023-04-25T17:18:16.135Z,10.00
2023-04-25T17:20:45.049Z,9.88
2023-04-25T17:23:13.841Z,9.73
2023-04-25T17:25:42.538Z,9.62
2023-04-25T17:28:11.199Z,9.51
2023-04-25T17:30:42.231Z,9.42
2023-04-25T17:33:11.041Z,9.33
2023-04-25T17:35:40.610Z,9.27
2023-04-25T17:38:09.991Z,9.23
2023-04-25T17:40:38.652Z,9.17
2023-04-25T17:43:07.467Z,9.05
2023-04-25T17:45:36.291Z,8.94
2023-04-25T17:48:05.202Z,8.86
2023-04-25T17:50:33.947Z,8.78
2023-04-25T17:53:05.860Z,8.72
2023-04-25T17:55:34.667Z,8.64
2023-04-25T17:58:03.969Z,8.58
2023-04-25T18:00:33.662Z,8.54
2023-04-25T18:03:02.475Z,8.49
2023-04-25T18:05:32.779Z,8.45
2023-04-25T18:08:01.542Z,8.39
2023-04-25T18:10:30.230Z,8.29
2023-04-25T18:12:58.920Z,8.27
2023-04-25T18:15:28.733Z,8.20
2023-04-25T18:17:58.264Z,8.14
2023-04-25T18:20:28.601Z,8.04
2023-04-25T18:22:57.429Z,7.93
2023-04-25T18:25:26.132Z,7.81
2023-04-25T18:27:54.857Z,7.68
2023-04-25T18:30:23.572Z,7.61
2023-04-25T18:32:52.365Z,7.58
2023-04-25T18:35:21.332Z,7.53
2023-04-25T18:37:50.173Z,7.42
2023-04-25T18:40:19.472Z,7.33
2023-04-25T18:42:49.022Z,7.21
2023-04-25T18:45:17.904Z,7.10
2023-04-25T18:47:47.186Z,6.98
2023-04-25T18:50:18.897Z,6.87
2023-04-25T18:52:47.627Z,6.78
2023-04-25T18:55:16.422Z,6.72
2023-04-25T18:57:45.082Z,6.74
2023-04-25T19:00:15.192Z,6.80
2023-04-25T19:02:44.166Z,6.77
2023-04-25T19:05:13.602Z,6.74
2023-04-25T19:07:42.432Z,6.68
2023-04-25T19:10:11.516Z,6.63
2023-04-25T19:12:40.202Z,6.53
2023-04-25T19:15:09.824Z,6.42
2023-04-25T19:17:38.597Z,6.33
2023-04-25T19:20:08.268Z,6.24
2023-04-25T19:22:37.026Z,6.19
2023-04-25T19:25:10.319Z,6.11
2023-04-25T19:27:40.054Z,6.06
2023-04-25T19:30:09.270Z,5.99
2023-04-25T19:32:39.276Z,5.89
2023-04-25T19:35:11.313Z,5.83
2023-04-25T19:37:46.318Z,5.80
2023-04-25T19:40:17.508Z,5.74
2023-04-25T19:42:46.485Z,5.67
2023-04-25T19:45:15.277Z,5.58
2023-04-25T19:47:45.007Z,5.50
2023-04-25T19:50:13.911Z,5.47
2023-04-25T19:52:43.035Z,5.49
2023-04-25T19:55:11.890Z,5.49
2023-04-25T19:57:41.013Z,5.52
2023-04-25T20:00:14.306Z,5.54
2023-04-25T20:02:45.519Z,5.55
2023-04-25T20:05:16.656Z,5.56
2023-04-25T20:07:45.378Z,5.61
2023-04-25T20:10:15.667Z,5.63
2023-04-25T20:12:44.915Z,5.70
2023-04-25T20:15:13.632Z,5.74
2023-04-25T20:17:42.517Z,5.79
2023-04-25T20:20:12.496Z,5.79
2023-04-25T20:22:41.289Z,5.82
2023-04-25T20:25:12.084Z,5.83
2023-04-25T20:27:40.930Z,5.86
2023-04-25T20:30:11.451Z,5.85
2023-04-25T20:32:41.051Z,5.82
2023-04-25T20:35:10.251Z,5.86
2023-04-25T20:37:39.067Z,5.96
2023-04-25T20:40:11.912Z,6.02
2023-04-25T20:42:40.766Z,6.13
2023-04-25T20:45:13.666Z,6.20
2023-04-25T20:47:44.592Z,6.26
2023-04-25T20:50:13.389Z,6.28
2023-04-25T20:52:43.164Z,6.30
2023-04-25T20:55:11.995Z,6.29
2023-04-25T20:57:40.869Z,6.28
2023-04-25T21:00:17.247Z,6.30
2023-04-25T21:02:46.847Z,6.31
2023-04-25T21:05:16.077Z,6.31
2023-04-25T21:07:45.624Z,6.31
2023-04-25T21:10:15.660Z,6.30
2023-04-25T21:12:49.498Z,6.29
2023-04-25T21:15:21.334Z,6.26
2023-04-25T21:17:51.242Z,6.27
2023-04-25T21:20:21.548Z,6.28
2023-04-25T21:22:53.880Z,6.27
2023-04-25T21:25:31.188Z,6.26
2023-04-25T21:28:02.299Z,6.28
2023-04-25T21:30:31.095Z,6.28
2023-04-25T21:33:00.602Z,6.28
2023-04-25T21:35:29.381Z,6.26
2023-04-25T21:37:58.499Z,6.29
2023-04-25T21:40:27.274Z,6.35
2023-04-25T21:42:56.788Z,6.40
2023-04-25T21:45:25.651Z,6.45
2023-04-25T21:47:54.987Z,6.52
2023-04-25T21:50:23.685Z,6.56
2023-04-25T21:52:54.189Z,6.58
2023-04-25T21:55:23.199Z,6.55
2023-04-25T21:57:53.095Z,6.51
2023-04-25T22:00:25.212Z,6.50
2023-04-25T22:02:57.701Z,6.51
2023-04-25T22:05:27.597Z,6.47
2023-04-25T22:07:59.293Z,6.45
2023-04-25T22:10:28.455Z,6.44
2023-04-25T22:12:58.454Z,6.43
2023-04-25T22:15:27.221Z,6.42
2023-04-25T22:17:55.976Z,6.42
2023-04-25T22:20:26.600Z,6.44
2023-04-25T22:22:56.438Z,6.42
2023-04-25T22:25:25.674Z,6.42
2023-04-25T22:27:55.451Z,6.43
2023-04-25T22:30:24.326Z,6.40
2023-04-25T22:32:53.054Z,6.38
2023-04-25T22:35:21.723Z,6.43
2023-04-25T22:37:50.353Z,6.46
2023-04-25T22:40:19.257Z,6.46
2023-04-25T22:42:47.975Z,6.44
2023-04-25T22:45:17.281Z,6.33
2023-04-25T22:47:46.433Z,6.20
2023-04-25T22:50:16.646Z,6.07
2023-04-25T22:52:50.227Z,5.99
2023-04-25T22:55:18.913Z,5.90
2023-04-25T22:57:47.595Z,5.82
2023-04-25T23:00:20.158Z,5.76
2023-04-25T23:02:49.795Z,5.67
2023-04-25T23:05:19.041Z,5.61
2023-04-25T23:07:48.484Z,5.53
2023-04-25T23:10:18.823Z,5.47
2023-04-25T23:12:47.617Z,5.38
2023-04-25T23:15:16.413Z,5.32
2023-04-25T23:17:45.121Z,5.31
2023-04-25T23:20:13.859Z,5.33
2023-04-25T23:22:42.770Z,5.39
2023-04-25T23:25:11.892Z,5.49
2023-04-25T23:27:40.601Z,5.57
2023-04-25T23:30:10.499Z,5.63
2023-04-25T23:32:39.593Z,5.64
2023-04-25T23:35:09.982Z,5.65
2023-04-25T23:37:40.512Z,5.61
2023-04-25T23:40:10.121Z,5.57
2023-04-25T23:42:41.226Z,5.54
2023-04-25T23:45:10.080Z,5.48
2023-04-25T23:47:38.981Z,5.42
2023-04-25T23:50:08.446Z,5.39
2023-04-25T23:52:37.947Z,5.34
2023-04-25T23:55:07.068Z,5.27
2023-04-25T23:57:36.279Z,5.19
